Strona główna
METAR-TAF:

METAR-TAF

Lotnisko :

Lonesome Pine Airport

Wise, Wirginia, Stany Zjednoczone

Szerokość geograficzna: 36-59N, Długość geograficzna: 082-32W, wysokość: 817 m

Aktualna obserwacja pogody

Raport powstał 29 minut temu, godzina 07:35 UTC
Wiatr 7 kt od północno-północny zachód
Temperatura -8°C
Wilgotność 85%
Ciśnienie 1023 hPa
Widzialność: 16.1 km
Zachmurzenie całkowite na wysokości 1000 ft
słaby śnieg

METAR: KLNP 200735Z AUTO 33007KT 10SM -SN OVC010 M08/M10 A3022 RMK AO2

czas: 03:04 (08:04 UTC)


TAF: brakujący

Obserwacja i prognoza pogody dla ponad 4000 lotnisk (raport METAR i TAF).

Dostępne stacje oznaczono żółtymi i czerwonymi punktami na mapie.

Najedź kursorem aby zobaczyć nazwę stacji.

Kliknij aby zobaczyć obserwacje i prognozy pogody.

Aby zmienić mapę: kliknij na zielony przycisk z czarnym krzyżykiem, aby powiększyć; na zielony przycisk z myślnikiem, aby pomniejszyć; na zielone strzałki, aby przejść do map sąsiednich.


METAR-TAF: